Time;durP1;ratioP1;P1;durP2;ratioP2;P2;SDS_P1;SDS_P2;PMS_P1;PMS_P2;Temp;Humidity;BMP_temperature;BMP_pressure;BME280_temperature;BME280_humidity;BME280_pressure;Samples;Min_cycle;Max_cycle;Signal;HPM_P1;HPM_P2
2023/09/17 00:01:55;;;;;;;0.20;0.20;;;;;;;22.05;63.04;101647.94;4795014;29;20979;-79
2023/09/17 00:04:20;;;;;;;0.20;0.20;;;;;;;22.03;63.08;101649.25;4800548;29;20416;-79
2023/09/17 00:06:46;;;;;;;0.30;0.30;;;;;;;22.11;62.97;101654.31;4786125;29;20420;-81
2023/09/17 00:09:13;;;;;;;0.20;0.20;;;;;;;22.06;63.28;101656.91;4787266;29;20421;-82
2023/09/17 00:11:40;;;;;;;0.30;0.30;;;;;;;21.96;63.43;101642.00;4786802;29;20403;-83
2023/09/17 00:14:06;;;;;;;0.40;0.40;;;;;;;21.95;63.29;101640.38;4784230;29;20509;-82
2023/09/17 00:16:31;;;;;;;0.17;0.17;;;;;;;22.00;63.26;101642.38;4786574;29;20400;-82
2023/09/17 00:18:57;;;;;;;0.20;0.20;;;;;;;22.01;63.14;101643.25;4786565;29;20420;-82
2023/09/17 00:21:23;;;;;;;0.20;0.20;;;;;;;21.96;63.42;101635.78;4785387;29;20501;-82
2023/09/17 00:23:49;;;;;;;0.20;0.20;;;;;;;22.00;63.16;101638.88;4800402;29;20485;-82
2023/09/17 00:26:14;;;;;;;0.40;0.40;;;;;;;21.85;64.27;101642.75;4786464;29;20819;-81
2023/09/17 00:28:40;;;;;;;0.60;0.50;;;;;;;21.80;64.50;101652.56;4786165;29;20871;-80
2023/09/17 00:31:06;;;;;;;0.38;0.38;;;;;;;21.74;64.50;101638.09;4788102;29;20921;-80
2023/09/17 00:33:31;;;;;;;0.10;0.10;;;;;;;21.81;64.39;101638.03;4786686;29;20859;-80
2023/09/17 00:35:58;;;;;;;0.27;0.27;;;;;;;21.79;64.47;101630.16;4799838;29;20553;-80
2023/09/17 00:38:24;;;;;;;0.20;0.20;;;;;;;21.73;64.58;101628.34;4785734;29;20439;-80
2023/09/17 00:40:49;;;;;;;0.20;0.20;;;;;;;21.72;64.87;101637.50;4798824;29;20781;-80
2023/09/17 00:43:18;;;;;;;0.20;0.20;;;;;;;21.67;65.32;101642.72;4799664;29;20897;-80
2023/09/17 00:45:45;;;;;;;0.52;0.52;;;;;;;21.54;65.78;101646.38;4782773;30;20412;-80
2023/09/17 00:48:12;;;;;;;0.25;0.25;;;;;;;21.56;65.69;101639.69;4782142;30;20850;-81
2023/09/17 00:50:40;;;;;;;0.40;0.40;;;;;;;21.59;65.79;101641.13;4768666;30;20427;-81
2023/09/17 00:53:06;;;;;;;0.30;0.30;;;;;;;21.61;65.71;101643.59;4783625;30;20412;-80
2023/09/17 00:55:33;;;;;;;0.73;0.65;;;;;;;21.62;65.56;101647.94;4753690;30;21011;-79
2023/09/17 00:58:00;;;;;;;0.40;0.30;;;;;;;21.55;65.85;101642.59;4753391;30;20452;-80
2023/09/17 01:00:26;;;;;;;0.50;0.50;;;;;;;21.49;66.20;101635.41;4768218;30;20524;-80
2023/09/17 01:02:54;;;;;;;0.80;0.40;;;;;;;21.48;66.25;101631.91;4768139;30;20424;-79
2023/09/17 01:05:21;;;;;;;0.20;0.20;;;;;;;21.56;66.02;101644.28;4783223;30;20983;-79
2023/09/17 01:07:47;;;;;;;0.30;0.30;;;;;;;21.54;65.89;101633.69;4783196;30;20412;-79
2023/09/17 01:10:15;;;;;;;0.20;0.20;;;;;;;21.51;66.35;101636.00;4782959;30;20428;-79
2023/09/17 01:12:42;;;;;;;0.50;0.50;;;;;;;21.53;66.33;101645.53;4767991;29;20413;-80
2023/09/17 01:15:09;;;;;;;0.40;0.40;;;;;;;21.44;66.90;101649.50;4768272;30;20435;-79
2023/09/17 01:17:35;;;;;;;0.10;0.10;;;;;;;21.48;66.75;101650.78;4768460;30;20432;-79
2023/09/17 01:20:00;;;;;;;0.30;0.30;;;;;;;21.48;66.85;101637.28;4767483;30;20417;-80
2023/09/17 01:22:38;;;;;;;0.20;0.20;;;;;;;21.59;66.35;101646.53;4783216;30;20501;-80
2023/09/17 01:25:28;;;;;;;0.38;0.35;;;;;;;21.55;66.61;101646.16;4768107;30;20640;-81
2023/09/17 01:27:55;;;;;;;0.28;0.28;;;;;;;21.55;66.40;101638.06;4770562;30;20966;-80
2023/09/17 01:30:21;;;;;;;0.20;0.20;;;;;;;21.48;67.05;101640.00;4767935;30;20400;-80
2023/09/17 01:32:51;;;;;;;0.40;0.40;;;;;;;21.37;67.36;101636.09;4783071;30;20514;-80
2023/09/17 01:35:17;;;;;;;0.60;0.40;;;;;;;21.42;67.22;101637.31;4769016;30;20412;-80
2023/09/17 01:37:48;;;;;;;0.20;0.20;;;;;;;21.37;67.25;101630.69;4783551;29;21287;-80
2023/09/17 01:40:15;;;;;;;0.30;0.30;;;;;;;21.47;66.88;101627.53;4784597;29;20529;-80
2023/09/17 01:42:44;;;;;;;0.38;0.38;;;;;;;21.58;66.76;101642.19;4783183;29;20435;-80
2023/09/17 01:45:16;;;;;;;0.20;0.20;;;;;;;21.48;67.07;101629.19;4798832;29;20417;-80
2023/09/17 01:47:50;;;;;;;0.38;0.38;;;;;;;21.36;67.49;101625.53;4770584;29;20416;-81
2023/09/17 01:50:17;;;;;;;0.60;0.40;;;;;;;21.24;67.95;101619.19;4800182;29;20436;-80
2023/09/17 01:52:44;;;;;;;0.50;0.50;;;;;;;21.23;67.91;101626.44;4784845;29;20477;-80
2023/09/17 01:55:10;;;;;;;0.40;0.40;;;;;;;21.29;67.85;101628.25;4784398;29;20419;-80
2023/09/17 01:57:42;;;;;;;0.40;0.40;;;;;;;21.20;68.05;101621.50;4785211;29;20491;-80
2023/09/17 02:00:16;;;;;;;0.70;0.70;;;;;;;21.29;67.95;101622.06;4800227;29;20946;-79
2023/09/17 02:02:51;;;;;;;0.30;0.30;;;;;;;21.36;67.62;101622.81;4800167;29;20437;-80
2023/09/17 02:05:20;;;;;;;0.30;0.30;;;;;;;21.32;67.90;101617.03;4771025;29;20427;-81
2023/09/17 02:07:48;;;;;;;0.38;0.38;;;;;;;21.36;67.62;101617.44;4800469;29;20406;-81
2023/09/17 02:10:14;;;;;;;0.30;0.30;;;;;;;21.23;68.05;101614.81;4785552;29;20414;-81
2023/09/17 02:12:41;;;;;;;0.50;0.50;;;;;;;21.33;67.76;101621.38;4785551;29;21104;-80
2023/09/17 02:15:10;;;;;;;0.40;0.40;;;;;;;21.32;67.99;101614.34;4785612;29;20419;-81
2023/09/17 02:17:37;;;;;;;0.22;0.22;;;;;;;21.37;67.88;101613.66;4785874;29;20419;-79
2023/09/17 02:20:10;;;;;;;0.30;0.20;;;;;;;21.28;68.22;101615.81;4800222;29;20410;-79
2023/09/17 02:22:37;;;;;;;0.77;0.77;;;;;;;21.27;68.43;101611.47;4800233;29;20448;-79
2023/09/17 02:25:03;;;;;;;0.95;0.60;;;;;;;21.25;68.35;101600.09;4785399;29;20418;-80
2023/09/17 02:27:29;;;;;;;0.20;0.20;;;;;;;21.21;68.70;101604.25;4800012;29;20415;-79
2023/09/17 02:29:57;;;;;;;0.40;0.40;;;;;;;21.27;68.52;101610.66;4800297;29;20403;-79
2023/09/17 02:32:27;;;;;;;1.27;0.38;;;;;;;21.29;68.20;101616.66;4786455;29;20424;-79
2023/09/17 02:34:54;;;;;;;0.30;0.30;;;;;;;21.35;68.37;101613.88;4822432;29;20976;-79
2023/09/17 02:37:20;;;;;;;0.17;0.17;;;;;;;21.39;68.17;101617.81;4821644;29;20887;-79
2023/09/17 02:39:45;;;;;;;0.70;0.70;;;;;;;21.39;68.05;101622.38;4821971;29;20935;-80
2023/09/17 02:42:11;;;;;;;0.28;0.28;;;;;;;21.18;68.88;101616.31;4821823;29;20458;-79
2023/09/17 02:44:37;;;;;;;0.20;0.20;;;;;;;21.26;68.81;101619.78;4822050;29;20412;-81
2023/09/17 02:47:03;;;;;;;0.57;0.57;;;;;;;21.25;68.73;101612.72;4821894;29;20477;-80
2023/09/17 02:49:28;;;;;;;0.37;0.37;;;;;;;21.31;68.61;101619.97;4821540;29;20397;-80
2023/09/17 02:51:54;;;;;;;0.30;0.30;;;;;;;21.27;68.40;101608.78;4791542;29;20420;-80
2023/09/17 02:54:20;;;;;;;0.40;0.40;;;;;;;21.31;68.48;101612.69;4785563;29;20423;-80
2023/09/17 02:56:45;;;;;;;1.50;0.50;;;;;;;21.36;68.50;101607.47;4770558;30;20469;-81
2023/09/17 02:59:14;;;;;;;0.30;0.30;;;;;;;21.32;68.44;101613.50;4785288;30;20868;-80
2023/09/17 03:01:40;;;;;;;0.25;0.25;;;;;;;21.29;68.47;101616.66;4785051;30;20431;-81
2023/09/17 03:04:06;;;;;;;0.30;0.30;;;;;;;21.26;68.85;101614.38;4785248;29;20440;-82
2023/09/17 03:06:33;;;;;;;0.30;0.30;;;;;;;21.27;68.74;101606.09;4771332;30;20449;-82
2023/09/17 03:09:00;;;;;;;0.40;0.40;;;;;;;21.29;68.71;101614.78;4752560;30;20961;-81
2023/09/17 03:11:29;;;;;;;0.17;0.17;;;;;;;21.30;68.72;101611.06;4738049;30;20492;-81
2023/09/17 03:13:56;;;;;;;0.40;0.40;;;;;;;21.28;68.51;101609.59;4752368;30;20889;-82
2023/09/17 03:16:26;;;;;;;0.63;0.63;;;;;;;21.34;68.45;101606.88;4766740;30;20432;-81
2023/09/17 03:18:52;;;;;;;0.25;0.25;;;;;;;21.38;68.28;101608.06;4752436;30;20438;-80
2023/09/17 03:21:18;;;;;;;0.50;0.50;;;;;;;21.34;68.38;101606.88;4752386;30;20510;-80
2023/09/17 03:23:44;;;;;;;0.40;0.40;;;;;;;21.35;68.42;101604.97;4767172;30;20430;-80
2023/09/17 03:26:10;;;;;;;0.27;0.27;;;;;;;21.43;68.25;101615.50;4780077;30;20436;-80
2023/09/17 03:28:35;;;;;;;0.43;0.43;;;;;;;21.41;68.20;101617.59;4787225;29;20404;-80
2023/09/17 03:31:01;;;;;;;0.52;0.47;;;;;;;21.38;68.45;101615.34;4787059;29;20427;-81
2023/09/17 03:33:29;;;;;;;0.60;0.40;;;;;;;21.45;68.18;101607.19;4820713;29;20496;-80
2023/09/17 03:35:54;;;;;;;0.30;0.30;;;;;;;21.45;68.14;101609.91;4820968;29;20820;-79
2023/09/17 03:38:20;;;;;;;0.37;0.37;;;;;;;21.44;68.31;101609.06;4820730;29;21060;-82
2023/09/17 03:40:46;;;;;;;0.20;0.20;;;;;;;21.37;68.36;101613.66;4820814;29;20404;-80
2023/09/17 03:43:12;;;;;;;0.20;0.20;;;;;;;21.40;68.27;101621.34;4819676;29;20428;-81
2023/09/17 03:45:38;;;;;;;0.20;0.20;;;;;;;21.37;68.65;101619.91;4805502;29;20412;-80
2023/09/17 03:48:05;;;;;;;0.60;0.60;;;;;;;21.34;68.74;101611.44;4820590;29;20408;-81
2023/09/17 03:50:32;;;;;;;1.10;0.80;;;;;;;21.18;69.22;101600.13;4790556;29;20417;-81
2023/09/17 03:53:02;;;;;;;0.50;0.50;;;;;;;21.27;68.94;101607.97;4805495;29;20420;-81
2023/09/17 03:55:34;;;;;;;0.47;0.47;;;;;;;21.30;68.89;101610.19;4790843;29;20431;-81
2023/09/17 03:58:03;;;;;;;0.32;0.30;;;;;;;21.30;68.76;101610.19;4806431;29;20513;-81
2023/09/17 04:00:32;;;;;;;0.32;0.30;;;;;;;21.20;69.18;101613.41;4820073;29;20446;-79
2023/09/17 04:03:00;;;;;;;0.60;0.60;;;;;;;21.20;69.49;101614.22;4819801;29;20519;-80
2023/09/17 04:05:25;;;;;;;0.50;0.50;;;;;;;21.17;69.28;101616.53;4770107;30;20968;-80
2023/09/17 04:07:52;;;;;;;0.47;0.47;;;;;;;21.17;69.65;101617.34;4799014;29;20469;-80
2023/09/17 04:10:19;;;;;;;1.00;0.70;;;;;;;21.22;69.32;101607.78;4784181;29;20474;-80
2023/09/17 04:12:45;;;;;;;0.30;0.30;;;;;;;21.16;69.48;101613.00;4783817;29;20440;-79
2023/09/17 04:15:16;;;;;;;0.50;0.50;;;;;;;21.05;69.89;101608.31;4785383;29;20450;-79
2023/09/17 04:17:47;;;;;;;0.30;0.30;;;;;;;21.09;69.81;101609.53;4784409;30;20413;-78
2023/09/17 04:20:14;;;;;;;0.30;0.30;;;;;;;21.14;69.67;101608.88;4786604;29;20432;-79
2023/09/17 04:22:48;;;;;;;0.50;0.50;;;;;;;21.18;69.63;101612.78;4785330;29;20472;-79
2023/09/17 04:25:17;;;;;;;0.30;0.30;;;;;;;21.17;69.45;101613.81;4770921;30;20416;-80
2023/09/17 04:27:46;;;;;;;0.80;0.63;;;;;;;21.16;69.53;101613.00;4785276;29;20405;-80
2023/09/17 04:30:13;;;;;;;0.30;0.30;;;;;;;21.17;69.71;101613.81;4771081;30;20491;-81
2023/09/17 04:32:42;;;;;;;0.37;0.33;;;;;;;21.20;69.66;101622.31;4786573;29;20412;-80
2023/09/17 04:35:09;;;;;;;0.30;0.30;;;;;;;21.26;69.55;101617.91;4800208;29;20405;-81
2023/09/17 04:37:37;;;;;;;0.20;0.20;;;;;;;21.29;69.10;101614.78;4787906;29;20400;-80
2023/09/17 04:40:08;;;;;;;0.75;0.75;;;;;;;21.39;68.89;101620.50;4784681;29;20412;-80
2023/09/17 04:42:35;;;;;;;0.28;0.28;;;;;;;21.43;68.59;101629.00;4784727;30;20435;-81
2023/09/17 04:45:05;;;;;;;0.10;0.10;;;;;;;21.62;68.75;101623.66;4784899;30;20423;-78
2023/09/17 04:47:34;;;;;;;0.40;0.40;;;;;;;21.57;68.48;101632.41;4786359;29;20415;-78
2023/09/17 04:50:01;;;;;;;0.35;0.35;;;;;;;21.35;69.13;101632.78;4785086;29;20407;-78
2023/09/17 04:52:27;;;;;;;0.10;0.10;;;;;;;21.39;69.19;101625.06;4770310;29;20515;-79
2023/09/17 04:54:52;;;;;;;0.32;0.30;;;;;;;21.27;69.29;101626.84;4786468;29;20522;-78
2023/09/17 04:57:18;;;;;;;0.30;0.30;;;;;;;21.24;69.50;101635.34;4799671;29;20495;-78
2023/09/17 04:59:45;;;;;;;0.30;0.30;;;;;;;21.43;69.18;101638.94;4785371;29;20450;-78
2023/09/17 05:02:11;;;;;;;0.43;0.43;;;;;;;21.39;69.13;101641.25;4785577;29;20415;-79
2023/09/17 05:04:36;;;;;;;0.37;0.30;;;;;;;21.48;69.13;101637.28;4785555;29;20408;-79
2023/09/17 05:07:03;;;;;;;0.80;0.50;;;;;;;21.56;68.88;101639.69;4798430;29;20431;-80
2023/09/17 05:09:30;;;;;;;0.50;0.50;;;;;;;21.58;68.67;101644.88;4785209;29;20401;-79
2023/09/17 05:11:57;;;;;;;0.68;0.65;;;;;;;21.66;68.40;101652.69;4784987;29;20419;-79
2023/09/17 05:14:24;;;;;;;0.30;0.30;;;;;;;21.60;68.60;101656.25;4798834;29;20440;-80
2023/09/17 05:16:53;;;;;;;0.50;0.50;;;;;;;21.68;68.42;101657.84;4800782;29;20783;-80
2023/09/17 05:19:21;;;;;;;0.50;0.50;;;;;;;21.79;68.28;101659.00;4800336;29;20453;-78
2023/09/17 05:21:49;;;;;;;0.30;0.30;;;;;;;21.96;67.43;101642.00;4800956;29;20965;-80
2023/09/17 05:24:16;;;;;;;0.30;0.30;;;;;;;21.91;67.43;101649.13;4800407;29;20426;-80
2023/09/17 05:26:42;;;;;;;1.00;0.60;;;;;;;21.98;67.30;101644.50;4800476;29;20477;-80
2023/09/17 05:29:10;;;;;;;0.60;0.60;;;;;;;22.05;67.10;101655.22;4800950;29;20411;-82
2023/09/17 05:31:36;;;;;;;0.27;0.27;;;;;;;22.21;66.67;101651.94;4785567;29;20424;-80
2023/09/17 05:34:02;;;;;;;0.65;0.65;;;;;;;22.14;66.45;101665.50;4785709;29;20499;-78
2023/09/17 05:36:29;;;;;;;0.20;0.20;;;;;;;22.00;66.93;101663.16;4803943;29;20440;-79
2023/09/17 05:38:54;;;;;;;1.60;0.40;;;;;;;21.87;67.29;101673.03;4788900;29;20497;-80
2023/09/17 05:41:20;;;;;;;0.80;0.70;;;;;;;21.98;67.09;101668.78;4802065;29;20411;-79
2023/09/17 05:43:45;;;;;;;0.60;0.60;;;;;;;22.09;66.79;101673.47;4785425;29;20795;-79
2023/09/17 05:46:11;;;;;;;0.30;0.30;;;;;;;22.12;66.77;101669.50;4785882;29;20450;-79
2023/09/17 05:48:37;;;;;;;0.40;0.40;;;;;;;22.21;66.63;101670.84;4787658;29;20411;-79
2023/09/17 05:51:04;;;;;;;0.40;0.40;;;;;;;22.04;66.50;101667.91;4785076;29;20797;-80
2023/09/17 05:53:31;;;;;;;0.20;0.20;;;;;;;22.10;66.75;101677.00;4784981;29;20838;-79
2023/09/17 05:55:57;;;;;;;0.30;0.30;;;;;;;22.14;66.57;101673.59;4785904;29;20491;-79
2023/09/17 05:58:23;;;;;;;0.35;0.35;;;;;;;22.21;66.39;101678.13;4770298;30;20503;-79
2023/09/17 06:00:49;;;;;;;0.32;0.32;;;;;;;22.28;66.21;101684.31;4784991;29;20419;-79
2023/09/17 06:03:14;;;;;;;0.57;0.57;;;;;;;22.22;66.36;101668.97;4798244;29;20431;-78
2023/09/17 06:05:41;;;;;;;0.30;0.30;;;;;;;22.20;66.15;101669.22;4785176;29;20408;-79
2023/09/17 06:08:06;;;;;;;1.40;0.40;;;;;;;22.04;66.94;101670.63;4786211;29;20420;-80
2023/09/17 06:10:33;;;;;;;0.30;0.30;;;;;;;22.08;66.91;101671.00;4801407;29;20411;-79
2023/09/17 06:12:59;;;;;;;1.50;1.00;;;;;;;22.00;66.61;101676.66;4786632;29;20435;-79
2023/09/17 06:15:25;;;;;;;0.47;0.47;;;;;;;22.14;66.38;101684.41;4801143;29;20539;-79
2023/09/17 06:17:52;;;;;;;0.30;0.30;;;;;;;22.46;65.73;101681.59;4787810;29;20409;-80
2023/09/17 06:20:18;;;;;;;0.30;0.30;;;;;;;22.59;64.93;101682.50;4803793;29;20407;-83
2023/09/17 06:22:45;;;;;;;0.50;0.50;;;;;;;22.71;64.72;101689.63;4803893;29;20525;-79
2023/09/17 06:25:12;;;;;;;0.40;0.40;;;;;;;22.60;64.40;101679.59;4803216;29;20418;-78
2023/09/17 06:27:38;;;;;;;0.55;0.47;;;;;;;22.36;65.24;101691.28;4788220;29;20421;-79
2023/09/17 06:30:05;;;;;;;0.30;0.30;;;;;;;22.28;65.62;101697.81;4803277;29;20818;-78
2023/09/17 06:32:31;;;;;;;0.30;0.30;;;;;;;22.05;66.19;101695.72;4803859;29;20406;-78
2023/09/17 06:34:57;;;;;;;0.50;0.50;;;;;;;21.96;66.64;101704.09;4803709;29;20414;-78
2023/09/17 06:37:24;;;;;;;0.38;0.38;;;;;;;21.85;67.18;101696.75;4803408;29;20406;-79
2023/09/17 06:39:51;;;;;;;0.65;0.65;;;;;;;21.93;66.91;101699.16;4788290;29;20413;-78
2023/09/17 06:42:16;;;;;;;0.25;0.25;;;;;;;21.89;67.16;101705.22;4803057;29;20849;-77
2023/09/17 06:44:42;;;;;;;0.40;0.33;;;;;;;21.81;67.71;101702.81;4803353;29;21187;-80
2023/09/17 06:47:08;;;;;;;0.30;0.30;;;;;;;21.82;67.60;101701.75;4788557;29;20434;-80
2023/09/17 06:49:34;;;;;;;0.40;0.40;;;;;;;21.88;67.71;101709.00;4788340;29;20410;-78
2023/09/17 06:51:59;;;;;;;0.50;0.50;;;;;;;21.93;67.33;101707.28;4785554;29;20917;-78
2023/09/17 06:54:25;;;;;;;0.40;0.40;;;;;;;21.85;67.50;101712.94;4787864;29;20408;-79
2023/09/17 06:56:52;;;;;;;0.87;0.40;;;;;;;21.74;67.74;101714.47;4787425;29;20404;-77
2023/09/17 06:59:18;;;;;;;0.50;0.40;;;;;;;21.50;68.90;101708.03;4786907;29;20404;-76
2023/09/17 07:01:45;;;;;;;0.90;0.60;;;;;;;21.60;68.57;101707.53;4786523;29;20480;-78
2023/09/17 07:04:11;;;;;;;0.13;0.13;;;;;;;21.67;68.64;101718.28;4800315;29;20471;-78
2023/09/17 07:06:37;;;;;;;0.50;0.50;;;;;;;21.51;69.12;101717.75;4801902;29;20543;-81
2023/09/17 07:09:04;;;;;;;0.13;0.13;;;;;;;21.47;69.27;101721.13;4787523;29;20400;-81
2023/09/17 07:11:32;;;;;;;0.32;0.32;;;;;;;21.49;69.35;101727.13;4786503;29;20477;-81
2023/09/17 07:13:57;;;;;;;0.30;0.30;;;;;;;21.58;69.01;101733.91;4786736;29;20505;-81
2023/09/17 07:16:24;;;;;;;0.40;0.40;;;;;;;21.33;69.34;101729.25;4786563;29;20408;-81
2023/09/17 07:18:51;;;;;;;0.82;0.55;;;;;;;21.24;69.75;101732.44;4786894;29;20415;-82
2023/09/17 07:21:17;;;;;;;0.57;0.35;;;;;;;21.19;69.84;101741.16;4801400;29;20500;-80
2023/09/17 07:23:42;;;;;;;0.20;0.20;;;;;;;21.18;69.60;101747.63;4787476;29;20428;-81
2023/09/17 07:26:09;;;;;;;0.30;0.30;;;;;;;21.15;69.64;101739.94;4801260;29;20416;-80
2023/09/17 07:28:35;;;;;;;0.15;0.15;;;;;;;20.99;69.87;101744.81;4786292;29;20420;-81
2023/09/17 07:31:01;;;;;;;0.20;0.20;;;;;;;20.88;70.08;101737.38;4787447;29;21241;-80
2023/09/17 07:33:27;;;;;;;0.50;0.50;;;;;;;20.64;70.95;101751.56;4787208;29;20444;-79
2023/09/17 07:35:52;;;;;;;0.20;0.20;;;;;;;20.63;70.96;101748.03;4787332;29;20489;-79
2023/09/17 07:38:18;;;;;;;0.20;0.20;;;;;;;20.74;70.53;101741.16;4786932;29;20758;-79
2023/09/17 07:40:47;;;;;;;0.27;0.27;;;;;;;20.64;70.72;101762.34;4800996;29;20427;-78
2023/09/17 07:43:13;;;;;;;0.30;0.20;;;;;;;20.62;70.92;101755.28;4787177;29;20436;-79
2023/09/17 07:45:38;;;;;;;0.40;0.40;;;;;;;20.69;70.57;101757.13;4801001;29;20759;-80
2023/09/17 07:48:04;;;;;;;0.28;0.28;;;;;;;20.72;70.31;101754.00;4800879;29;20840;-83
2023/09/17 07:50:31;;;;;;;0.40;0.30;;;;;;;20.73;70.36;101758.38;4800667;29;20404;-80
2023/09/17 07:52:57;;;;;;;0.40;0.40;;;;;;;20.69;70.15;101763.38;4786091;29;20499;-80
2023/09/17 07:55:22;;;;;;;0.20;0.20;;;;;;;20.61;70.55;101759.00;4800865;29;20883;-81
2023/09/17 07:57:48;;;;;;;0.20;0.20;;;;;;;20.72;70.26;101765.59;4786731;29;20909;-79
2023/09/17 08:00:15;;;;;;;0.28;0.28;;;;;;;20.58;70.59;101770.19;4800744;29;20408;-80
2023/09/17 08:02:44;;;;;;;0.20;0.20;;;;;;;20.43;71.00;101778.50;4786834;29;20599;-81
2023/09/17 08:05:10;;;;;;;0.20;0.20;;;;;;;20.57;70.70;101765.00;4786799;29;20793;-80
2023/09/17 08:07:36;;;;;;;0.17;0.17;;;;;;;20.61;70.46;101774.34;4770814;30;20420;-80
2023/09/17 08:10:06;;;;;;;0.40;0.40;;;;;;;20.67;70.25;101775.38;4800552;29;20493;-81
2023/09/17 08:12:32;;;;;;;0.30;0.30;;;;;;;20.70;70.14;101783.84;4786576;29;20901;-80
2023/09/17 08:14:58;;;;;;;2.45;1.00;;;;;;;20.71;69.94;101788.22;4800274;29;20480;-81
2023/09/17 08:17:23;;;;;;;0.70;0.40;;;;;;;20.69;69.91;101787.59;4786686;29;20809;-82
2023/09/17 08:19:54;;;;;;;0.20;0.20;;;;;;;20.71;69.92;101787.41;4786784;29;20404;-81
2023/09/17 08:22:21;;;;;;;0.30;0.30;;;;;;;20.70;69.98;101789.25;4786589;29;20424;-81
2023/09/17 08:24:48;;;;;;;0.20;0.20;;;;;;;20.72;69.66;101789.84;4785541;29;20401;-82
2023/09/17 08:27:16;;;;;;;0.40;0.40;;;;;;;20.85;69.29;101790.88;4784653;29;20513;-82
2023/09/17 08:29:43;;;;;;;0.30;0.30;;;;;;;20.85;69.30;101788.19;4812516;29;20412;-83
2023/09/17 08:32:11;;;;;;;0.40;0.40;;;;;;;20.74;69.41;101786.97;4785973;29;20446;-84
2023/09/17 08:34:36;;;;;;;0.60;0.60;;;;;;;20.83;69.82;101795.66;4784708;29;20508;-85
2023/09/17 08:37:04;;;;;;;0.30;0.30;;;;;;;20.77;69.60;101789.25;4800897;29;20492;-89
2023/09/17 08:39:31;;;;;;;0.30;0.30;;;;;;;20.81;69.89;101790.47;4800182;29;20495;-86
2023/09/17 08:42:00;;;;;;;1.10;0.50;;;;;;;20.78;69.85;101789.03;4808361;29;20416;-85
2023/09/17 08:44:29;;;;;;;0.32;0.32;;;;;;;20.77;70.09;101786.53;4803520;29;20438;-87
2023/09/17 08:46:57;;;;;;;0.20;0.20;;;;;;;20.69;70.68;101782.22;4785586;29;20487;-85
2023/09/17 08:49:29;;;;;;;0.20;0.20;;;;;;;20.66;70.96;101781.81;4784495;30;20774;-84
2023/09/17 08:51:59;;;;;;;0.30;0.30;;;;;;;20.74;70.75;101778.88;4783467;29;20409;-86
2023/09/17 08:54:28;;;;;;;0.40;0.40;;;;;;;20.73;70.79;101777.25;4785107;29;20420;-86
2023/09/17 08:56:56;;;;;;;0.30;0.30;;;;;;;20.81;70.46;101782.38;4782548;30;20487;-89
2023/09/17 08:59:28;;;;;;;0.30;0.30;;;;;;;20.76;70.71;101783.03;4781746;30;20492;-83
2023/09/17 09:01:56;;;;;;;0.52;0.52;;;;;;;20.80;70.61;101786.13;4780134;29;20840;-84
2023/09/17 09:04:23;;;;;;;0.30;0.30;;;;;;;20.90;70.42;101789.19;4783407;29;20436;-84
2023/09/17 09:06:54;;;;;;;0.20;0.20;;;;;;;21.00;69.94;101794.16;4784900;29;20420;-87
2023/09/17 09:09:23;;;;;;;0.20;0.20;;;;;;;21.05;69.76;101794.34;4786535;29;21039;-89
2023/09/17 09:11:49;;;;;;;1.00;0.13;;;;;;;21.12;69.33;101800.53;4800031;29;20439;-80
2023/09/17 09:14:15;;;;;;;0.30;0.30;;;;;;;21.17;69.32;101799.88;4799115;29;20460;-80
2023/09/17 09:16:44;;;;;;;0.15;0.15;;;;;;;21.19;69.32;101801.34;4785695;29;20439;-86
2023/09/17 09:19:13;;;;;;;0.30;0.30;;;;;;;21.18;69.29;101801.53;4783370;30;20416;-82
2023/09/17 09:21:39;;;;;;;0.10;0.10;;;;;;;21.27;69.35;101796.75;4768993;29;20825;-83
2023/09/17 09:24:05;;;;;;;0.20;0.20;;;;;;;21.32;68.99;101795.03;4800344;29;20436;-83
2023/09/17 09:26:36;;;;;;;0.80;0.30;;;;;;;21.32;69.04;101794.19;4783076;29;20558;-82
2023/09/17 09:29:03;;;;;;;0.20;0.20;;;;;;;21.45;68.93;101804.13;4798253;29;20400;-81
2023/09/17 09:31:31;;;;;;;0.30;0.30;;;;;;;21.50;68.80;101807.00;4785018;29;20407;-81
2023/09/17 09:34:02;;;;;;;0.20;0.20;;;;;;;21.51;68.84;101798.69;4783379;29;20940;-81
2023/09/17 09:36:32;;;;;;;0.28;0.20;;;;;;;21.57;68.93;101803.25;4795619;29;21200;-82
2023/09/17 09:38:59;;;;;;;0.73;0.73;;;;;;;21.52;68.98;101813.84;4784983;29;20436;-82
2023/09/17 09:41:25;;;;;;;0.47;0.40;;;;;;;21.61;68.93;101810.88;4795693;29;20427;-80
2023/09/17 09:43:52;;;;;;;0.30;0.30;;;;;;;21.67;68.61;101802.75;4783017;29;20436;-81
2023/09/17 09:46:18;;;;;;;0.17;0.17;;;;;;;21.77;68.71;101807.69;4783715;29;20785;-80
2023/09/17 09:48:45;;;;;;;0.38;0.38;;;;;;;21.78;68.93;101793.13;4798670;29;20955;-81
2023/09/17 09:51:17;;;;;;;0.97;0.50;;;;;;;21.88;68.94;101803.47;4784868;29;20455;-82
2023/09/17 09:53:46;;;;;;;0.22;0.22;;;;;;;21.85;68.90;101804.72;4783775;30;20424;-82
2023/09/17 09:56:14;;;;;;;0.30;0.30;;;;;;;21.94;68.99;101808.78;4783710;30;20413;-82
2023/09/17 09:58:40;;;;;;;0.20;0.20;;;;;;;22.01;68.67;101797.13;4798848;29;20445;-82
2023/09/17 10:01:07;;;;;;;1.10;0.30;;;;;;;22.17;68.34;101796.56;4782213;29;20428;-83
2023/09/17 10:03:33;;;;;;;0.45;0.45;;;;;;;22.33;68.48;101792.53;4782481;29;20451;-81
2023/09/17 10:06:07;;;;;;;0.40;0.40;;;;;;;22.37;68.56;101793.72;4783120;29;20400;-82
2023/09/17 10:08:37;;;;;;;0.20;0.20;;;;;;;22.31;69.02;101794.63;4783853;29;20424;-82
2023/09/17 10:11:05;;;;;;;0.25;0.25;;;;;;;22.37;68.66;101791.03;4797499;29;21313;-79
2023/09/17 10:13:32;;;;;;;0.20;0.20;;;;;;;22.45;68.81;101789.91;4796514;29;20886;-78
2023/09/17 10:15:58;;;;;;;0.30;0.30;;;;;;;22.50;68.68;101807.09;4795866;29;20472;-81
2023/09/17 10:18:26;;;;;;;0.33;0.33;;;;;;;22.54;68.50;101802.06;4781759;29;20412;-81
2023/09/17 10:20:54;;;;;;;0.40;0.40;;;;;;;22.55;68.39;101803.72;4782221;29;20427;-81
2023/09/17 10:23:26;;;;;;;0.40;0.40;;;;;;;22.58;68.41;101797.91;4783092;29;20864;-81
2023/09/17 10:26:10;;;;;;;0.60;0.30;;;;;;;22.63;68.28;101797.19;4772330;30;20514;-82
2023/09/17 10:28:37;;;;;;;0.30;0.30;;;;;;;22.57;68.09;101803.53;4783866;30;20400;-83
2023/09/17 10:31:06;;;;;;;0.80;0.30;;;;;;;22.75;67.97;101789.19;4768838;30;20801;-84
2023/09/17 10:33:36;;;;;;;0.17;0.17;;;;;;;22.89;67.85;101793.41;4784623;29;20451;-84
2023/09/17 10:36:07;;;;;;;0.10;0.10;;;;;;;22.95;67.47;101797.06;4782925;30;20420;-85
2023/09/17 10:38:39;;;;;;;0.40;0.40;;;;;;;23.04;67.69;101790.28;4783137;30;20412;-86
2023/09/17 10:41:06;;;;;;;0.40;0.40;;;;;;;23.09;67.65;101796.69;4781573;29;20955;-86
2023/09/17 10:43:36;;;;;;;0.57;0.57;;;;;;;23.10;67.17;101792.13;4795531;29;20510;-83
2023/09/17 10:46:06;;;;;;;0.23;0.23;;;;;;;23.14;67.72;101795.19;4789936;29;20412;-82
2023/09/17 10:48:33;;;;;;;0.30;0.30;;;;;;;23.11;67.83;101782.13;4780056;30;20431;-79
2023/09/17 10:50:59;;;;;;;0.30;0.30;;;;;;;23.17;67.44;101792.03;4780102;29;20416;-80
2023/09/17 10:53:28;;;;;;;0.60;0.60;;;;;;;23.14;67.16;101781.66;4784314;29;20459;-81
2023/09/17 10:56:00;;;;;;;0.20;0.20;;;;;;;23.14;67.37;101782.50;4790963;29;20403;-82
2023/09/17 10:58:46;;;;;;;0.20;0.20;;;;;;;23.19;67.37;101782.66;4783284;29;20404;-82
2023/09/17 11:01:14;;;;;;;0.20;0.20;;;;;;;23.25;66.87;101779.03;4786390;30;20453;-82
2023/09/17 11:03:55;;;;;;;0.22;0.22;;;;;;;23.36;66.49;101780.13;4787497;29;20420;-78
2023/09/17 11:06:25;;;;;;;0.30;0.30;;;;;;;23.44;66.60;101779.81;4786039;30;20419;-83
2023/09/17 11:08:57;;;;;;;0.30;0.30;;;;;;;23.61;66.15;101782.69;4785685;29;20497;-81
2023/09/17 11:11:25;;;;;;;0.30;0.30;;;;;;;23.60;66.16;101781.03;4786527;30;20411;-84
2023/09/17 11:13:57;;;;;;;0.47;0.47;;;;;;;23.72;65.86;101774.84;4786304;30;20428;-78
2023/09/17 11:16:28;;;;;;;0.20;0.20;;;;;;;23.71;65.52;101770.47;4786133;29;20943;-79
2023/09/17 11:19:11;;;;;;;0.40;0.40;;;;;;;23.73;65.08;101769.16;4787077;29;21183;-78
2023/09/17 11:21:47;;;;;;;0.50;0.50;;;;;;;23.71;64.88;101767.75;4784235;30;20451;-81
2023/09/17 11:24:13;;;;;;;0.20;0.20;;;;;;;23.74;64.81;101765.41;4787179;29;20435;-79
2023/09/17 11:26:45;;;;;;;0.50;0.50;;;;;;;23.79;64.45;101765.53;4801230;29;20412;-80